Hundvaag 1 weather for Oct 1993
Month no. 76
Obs.
Da.
Temp. Dew Point Precip. Wind
Speed
Wind gusts Cloud cover Press. Humidity Wind dir. Sunny OPT
01.10.1993 8,0   0,0                
02.10.1993 10,0   0,0                
03.10.1993 8,0   0,0                
04.10.1993 8,6   8,0                
05.10.1993 9,0   2,1             1  
06.10.1993 9,9   4,0                
07.10.1993 10,0   0,0                
08.10.1993 8,7   0,0                
09.10.1993 12,3   0,0                
10.10.1993 8,0   8,6                
11.10.1993 7,8   5,9                
12.10.1993 8,0   7,9                
13.10.1993 4,7   1,9             1  
14.10.1993 2,9   0,0             1  
15.10.1993 1,6   0,0                
16.10.1993 5,0   11,0                
17.10.1993 -0,2   1,1             1  
18.10.1993 3,9   2,3                
19.10.1993 6,9   3,2                
20.10.1993 6,4   8,4                
21.10.1993 6,2   7,8             1  
22.10.1993 -0,9   0,0             1  
23.10.1993 0,6   0,0             1  
24.10.1993 4,5   3,0                
25.10.1993 7,0   1,3                
26.10.1993 8,3   0,8                
27.10.1993 7,8   0,0             1  
28.10.1993 4,8   0,0             1  
29.10.1993 3,9   0,0                
30.10.1993 3,8   0,3                
31.10.1993 2,7   1,0                
Avrg/Sum 6,1   78,6             9